LPBJ

Beja International Airport

Beja, Portugal
TAF LPBJ 212302Z 2200/2224 33008KT 9999 FEW020 PROB40 2203/2208 VRB02KT 0100 FG BKN001 BECMG 2209/2211 34012KT FEW020 BKN035 TEMPO 2212/2217 34015G25KT PROB30 TEMPO 2220/2222 6000 -RA SCT009 BKN014
Issued Valid From Valid To
Jan-21 @ 23:02 UTC
(an hour ago)
Jan-22 @ 00:00 UTC
(30 minutes ago)
Jan-23 @ 00:00 UTC
(in 24 hours)
Jan-22 @ 00:00 to Jan-22 @ 09:00
TAF LPBJ 212302Z 2200/2224 33008KT 9999 FEW020
Wind Visibility Clouds
330° at 8 knots 10,000+ meters
  • Few at 2,000' AGL
Probable  (Probability 40%) Jan-22 @ 03:00 to Jan-22 @ 08:00
PROB40 2203/2208 VRB02KT 0100 FG BKN001
Wind Visibility Clouds Conditions
Variable at 2 knots 97 meters
  • Broken at 100' AGL
  • Fog
Becoming Jan-22 @ 09:00 to Jan-23 @ 00:00
BECMG 2209/2211 34012KT FEW020 BKN035
Wind Visibility Clouds
340° at 12 knots 10,000+ meters
  • Few at 2,000' AGL
  • Broken at 3,500' AGL
Temporary Jan-22 @ 12:00 to Jan-22 @ 17:00
TEMPO 2212/2217 34015G25KT
Wind
340° at 15 knots
 Gusting to 25 knots
Temporary  (Probability 30%) Jan-22 @ 20:00 to Jan-22 @ 22:00
PROB30 TEMPO 2220/2222 6000 -RA SCT009 BKN014
Visibility Clouds Conditions
6,003 meters
  • Scattered at 900' AGL
  • Broken at 1,400' AGL
  • Light Rain
TAF LPBJ 212302Z 2200/2224 33008KT 9999 FEW020 PROB40 2203/2208 VRB02KT 0100 FG BKN001 BECMG 2209/2211 34012KT FEW020 BKN035 TEMPO 2212/2217 34015G25KT PROB30 TEMPO 2220/2222 6000 -RA SCT009 BKN014
Issued Jan-21 @ 23:02 UTC
(an hour ago)
Valid From Jan-22 @ 00:00 UTC
(30 minutes ago)
Valid To Jan-23 @ 00:00 UTC
(in 24 hours)
Jan-22 @ 00:00 - Jan-22 @ 09:00
Wind Visibility
330° at 8 knots 10,000+ meters
Clouds
  • Few at 2,000' AGL
Probability 40% Probable Jan-22 @ 03:00 - Jan-22 @ 08:00
Wind Visibility
Variable at 2 knots 97 meters
Clouds
  • Broken at 100' AGL
Conditions
  • Fog
Becoming Jan-22 @ 09:00 - Jan-23 @ 00:00
Wind Visibility
340° at 12 knots 10,000+ meters
Clouds
  • Few at 2,000' AGL
  • Broken at 3,500' AGL
Temporary Jan-22 @ 12:00 - Jan-22 @ 17:00
Wind
340° at 15 knots
 Gusting to 25 knots
Probability 30% Temporary Jan-22 @ 20:00 - Jan-22 @ 22:00
Clouds
  • Scattered at 900' AGL
  • Broken at 1,400' AGL
Conditions
  • Light Rain